createdAt,value
2022-09-10T00:01:55.050Z,3.13
2022-09-10T00:04:36.752Z,2.90
2022-09-10T00:07:10.391Z,3.30
2022-09-10T00:10:00.819Z,2.75
2022-09-10T00:15:11.136Z,3.53
2022-09-10T00:17:51.175Z,3.28
2022-09-10T00:20:24.011Z,4.25
2022-09-10T00:22:54.761Z,4.70
2022-09-10T00:25:23.590Z,3.92
2022-09-10T00:30:37.445Z,3.60
2022-09-10T00:33:09.573Z,3.67
2022-09-10T00:38:59.418Z,4.13
2022-09-10T00:42:14.338Z,4.20
2022-09-10T00:44:55.568Z,3.63
2022-09-10T00:47:45.339Z,3.38
2022-09-10T00:50:12.238Z,4.53
2022-09-10T00:53:19.794Z,4.80
2022-09-10T00:55:39.856Z,4.28
2022-09-10T00:58:08.715Z,4.75
2022-09-10T01:00:36.139Z,5.05
2022-09-10T01:03:25.333Z,5.15
2022-09-10T01:09:57.930Z,5.20
2022-09-10T01:12:47.380Z,5.15
2022-09-10T01:15:23.721Z,5.68
2022-09-10T01:18:11.469Z,5.78
2022-09-10T01:20:53.889Z,5.57
2022-09-10T01:23:52.992Z,5.57
2022-09-10T01:26:22.652Z,5.20
2022-09-10T01:31:53.014Z,5.25
2022-09-10T01:34:34.666Z,5.78
2022-09-10T01:37:18.279Z,5.70
2022-09-10T01:40:17.659Z,5.05
2022-09-10T01:43:42.837Z,5.65
2022-09-10T01:46:07.590Z,5.47
2022-09-10T01:48:34.729Z,5.18
2022-09-10T01:51:22.036Z,6.00
2022-09-10T01:53:56.059Z,5.40
2022-09-10T01:56:25.656Z,5.57
2022-09-10T01:58:57.556Z,5.90
2022-09-10T02:01:31.344Z,5.35
2022-09-10T02:04:04.507Z,5.75
2022-09-10T02:06:34.639Z,5.60
2022-09-10T02:09:10.718Z,5.63
2022-09-10T02:15:40.946Z,4.70
2022-09-10T02:18:17.123Z,5.78
2022-09-10T02:23:51.764Z,5.47
2022-09-10T02:29:38.854Z,4.95
2022-09-10T02:32:11.728Z,5.38
2022-09-10T02:34:40.518Z,6.30
2022-09-10T02:37:12.847Z,6.32
2022-09-10T02:40:24.232Z,6.07
2022-09-10T02:43:26.405Z,6.07
2022-09-10T02:45:59.578Z,7.15
2022-09-10T02:48:40.096Z,5.88
2022-09-10T03:13:59.252Z,5.57
2022-09-10T03:16:26.787Z,6.60
2022-09-10T03:18:53.717Z,6.50
2022-09-10T03:21:21.680Z,5.05
2022-09-10T03:23:49.575Z,5.70
2022-09-10T03:26:17.372Z,7.45
2022-09-10T03:28:44.909Z,5.88
2022-09-10T03:31:13.670Z,5.25
2022-09-10T03:33:43.742Z,5.53
2022-09-10T03:36:13.350Z,5.20
2022-09-10T03:38:40.781Z,5.63
2022-09-10T03:41:08.156Z,5.55
2022-09-10T03:43:34.995Z,5.15
2022-09-10T03:46:02.717Z,4.65
2022-09-10T03:48:29.954Z,4.95
2022-09-10T03:50:56.791Z,6.03
2022-09-10T03:53:23.913Z,5.13
2022-09-10T03:55:52.035Z,5.40
2022-09-10T03:58:18.968Z,4.75
2022-09-10T04:00:46.633Z,4.72
2022-09-10T04:03:14.646Z,5.03
2022-09-10T04:05:43.666Z,5.15
2022-09-10T04:08:13.975Z,4.65
2022-09-10T04:10:41.244Z,5.68
2022-09-10T04:13:08.196Z,5.72
2022-09-10T04:15:35.133Z,5.50
2022-09-10T04:18:01.973Z,4.85
2022-09-10T04:20:29.033Z,4.65
2022-09-10T04:22:56.763Z,4.70
2022-09-10T04:25:23.935Z,4.07
2022-09-10T04:27:51.103Z,4.88
2022-09-10T04:30:18.358Z,4.70
2022-09-10T04:32:45.315Z,4.60
2022-09-10T04:35:15.394Z,4.60
2022-09-10T04:37:43.187Z,4.43
2022-09-10T04:40:10.811Z,4.55
2022-09-10T04:42:38.301Z,3.83
2022-09-10T04:45:05.626Z,4.20
2022-09-10T04:47:33.205Z,4.22
2022-09-10T04:50:00.367Z,4.38
2022-09-10T04:52:27.948Z,4.03
2022-09-10T04:54:54.938Z,4.68
2022-09-10T04:57:22.241Z,4.03
2022-09-10T04:59:49.068Z,4.25
2022-09-10T05:02:16.019Z,4.55
2022-09-10T05:04:42.895Z,4.40
2022-09-10T05:07:09.707Z,5.22
2022-09-10T05:09:36.571Z,4.88
2022-09-10T05:12:04.244Z,4.78
2022-09-10T05:14:31.315Z,4.95
2022-09-10T05:16:58.091Z,4.10
2022-09-10T05:19:24.961Z,5.85
2022-09-10T05:21:51.758Z,4.85
2022-09-10T05:24:18.546Z,5.30
2022-09-10T05:26:46.609Z,5.75
2022-09-10T05:29:14.176Z,5.28
2022-09-10T05:31:41.189Z,4.72
2022-09-10T05:34:08.503Z,4.88
2022-09-10T05:36:35.628Z,5.30
2022-09-10T05:39:03.788Z,4.60
2022-09-10T05:41:31.276Z,5.45
2022-09-10T05:43:58.674Z,5.10
2022-09-10T05:46:25.555Z,5.60
2022-09-10T05:48:54.409Z,6.38
2022-09-10T05:51:21.840Z,5.25
2022-09-10T05:53:49.987Z,6.00
2022-09-10T05:56:16.914Z,6.13
2022-09-10T05:58:45.171Z,5.90
2022-09-10T06:01:12.277Z,6.28
2022-09-10T06:03:40.510Z,5.75
2022-09-10T06:06:07.524Z,5.63
2022-09-10T06:08:35.469Z,5.80
2022-09-10T06:11:04.465Z,7.05
2022-09-10T06:13:32.495Z,5.50
2022-09-10T06:15:59.610Z,6.40
2022-09-10T06:18:26.478Z,5.75
2022-09-10T06:21:03.320Z,5.40
2022-09-10T06:23:31.430Z,5.78
2022-09-10T06:26:02.030Z,5.53
2022-09-10T06:28:28.815Z,6.05
2022-09-10T06:30:55.929Z,6.15
2022-09-10T06:33:22.792Z,6.80
2022-09-10T06:35:53.816Z,6.45
2022-09-10T06:38:20.751Z,6.43
2022-09-10T06:40:51.353Z,6.28
2022-09-10T06:43:18.187Z,6.45
2022-09-10T06:45:45.096Z,6.65
2022-09-10T06:50:59.082Z,6.15
2022-09-10T06:53:27.439Z,6.85
2022-09-10T06:55:54.767Z,6.78
2022-09-10T06:58:23.491Z,7.10
2022-09-10T07:00:50.796Z,6.95
2022-09-10T07:03:18.680Z,6.78
2022-09-10T07:05:45.957Z,6.80
2022-09-10T07:08:14.184Z,6.50
2022-09-10T07:10:41.066Z,6.97
2022-09-10T07:13:08.260Z,6.07
2022-09-10T07:15:35.155Z,5.80
2022-09-10T07:18:02.089Z,5.43
2022-09-10T07:20:29.544Z,6.63
2022-09-10T07:22:56.420Z,5.90
2022-09-10T07:25:24.066Z,6.90
2022-09-10T07:27:50.927Z,6.90
2022-09-10T07:30:18.221Z,6.93
2022-09-10T07:32:46.603Z,7.28
2022-09-10T07:35:13.655Z,6.85
2022-09-10T07:37:41.608Z,6.90
2022-09-10T07:40:08.621Z,6.85
2022-09-10T07:42:37.424Z,6.90
2022-09-10T07:45:05.648Z,7.10
2022-09-10T07:47:33.305Z,7.53
2022-09-10T07:50:00.636Z,6.75
2022-09-10T07:52:27.408Z,6.80
2022-09-10T07:54:54.308Z,7.50
2022-09-10T07:57:21.333Z,6.63
2022-09-10T07:59:48.445Z,7.07
2022-09-10T08:02:15.588Z,7.40
2022-09-10T08:04:43.089Z,7.65
2022-09-10T08:07:09.933Z,7.95
2022-09-10T08:09:36.743Z,7.90
2022-09-10T08:12:04.010Z,7.32
2022-09-10T08:14:31.731Z,7.72
2022-09-10T08:16:58.598Z,7.95
2022-09-10T08:19:25.423Z,8.75
2022-09-10T08:21:52.200Z,8.07
2022-09-10T08:24:19.002Z,7.13
2022-09-10T08:26:45.857Z,7.70
2022-09-10T08:29:12.670Z,7.60
2022-09-10T08:31:39.694Z,7.18
2022-09-10T08:34:06.500Z,6.90
2022-09-10T08:36:33.252Z,7.25
2022-09-10T08:39:04.055Z,7.30
2022-09-10T08:41:39.295Z,7.22
2022-09-10T08:44:09.005Z,7.50
2022-09-10T08:46:52.542Z,7.45
2022-09-10T08:49:25.070Z,6.85
2022-09-10T08:52:03.106Z,6.90
2022-09-10T08:54:37.525Z,7.30
2022-09-10T08:57:05.664Z,8.45
2022-09-10T08:59:34.650Z,8.27
2022-09-10T09:02:31.645Z,10.15
2022-09-10T09:05:04.751Z,9.20
2022-09-10T09:07:39.537Z,8.45
2022-09-10T09:10:35.783Z,7.53
2022-09-10T09:15:36.940Z,7.93
2022-09-10T09:18:11.016Z,7.07
2022-09-10T09:20:45.486Z,7.70
2022-09-10T09:23:12.304Z,6.93
2022-09-10T09:25:47.606Z,7.07
2022-09-10T09:28:24.489Z,7.35
2022-09-10T09:30:53.591Z,6.97
2022-09-10T09:33:22.666Z,7.25
2022-09-10T09:35:55.441Z,6.90
2022-09-10T09:38:27.538Z,5.88
2022-09-10T09:40:56.655Z,6.10
2022-09-10T09:43:31.364Z,6.80
2022-09-10T09:45:58.667Z,7.40
2022-09-10T09:48:26.415Z,7.07
2022-09-10T09:50:55.746Z,6.40
2022-09-10T09:53:27.200Z,6.47
2022-09-10T09:55:54.097Z,6.03
2022-09-10T09:58:22.020Z,5.82
2022-09-10T10:00:49.497Z,4.65
2022-09-10T10:03:20.525Z,5.70
2022-09-10T10:05:48.249Z,5.22
2022-09-10T10:08:28.404Z,5.30
2022-09-10T10:10:55.742Z,5.47
2022-09-10T10:13:22.642Z,5.68
2022-09-10T10:15:50.705Z,4.88
2022-09-10T10:18:23.375Z,5.00
2022-09-10T10:21:04.289Z,4.57
2022-09-10T10:23:36.628Z,4.95
2022-09-10T10:26:30.562Z,4.70
2022-09-10T10:29:17.984Z,4.30
2022-09-10T10:31:47.270Z,4.47
2022-09-10T10:34:17.066Z,4.30
2022-09-10T10:37:16.647Z,4.43
2022-09-10T10:39:49.539Z,5.15
2022-09-10T10:42:16.677Z,4.40
2022-09-10T10:44:52.629Z,4.63
2022-09-10T10:47:19.759Z,4.90
2022-09-10T10:49:46.530Z,4.32
2022-09-10T10:52:20.032Z,4.45
2022-09-10T10:55:05.509Z,4.07
2022-09-10T10:57:38.321Z,3.97
2022-09-10T11:00:16.240Z,4.30
2022-09-10T11:02:43.152Z,4.63
2022-09-10T11:05:31.203Z,5.20
2022-09-10T11:08:00.333Z,4.22
2022-09-10T11:10:36.608Z,4.88
2022-09-10T11:13:03.481Z,4.50
2022-09-10T11:15:34.986Z,4.45
2022-09-10T11:18:37.244Z,4.38
2022-09-10T11:21:13.187Z,4.25
2022-09-10T11:23:49.197Z,4.38
2022-09-10T11:26:18.944Z,4.20
2022-09-10T11:28:50.809Z,4.20
2022-09-10T11:31:25.263Z,4.63
2022-09-10T11:33:57.887Z,3.97
2022-09-10T11:36:31.077Z,4.25
2022-09-10T11:39:01.764Z,3.80
2022-09-10T11:41:30.129Z,3.95
2022-09-10T11:44:20.009Z,3.50
2022-09-10T11:49:16.775Z,2.83
2022-09-10T11:51:45.371Z,3.00
2022-09-10T11:54:16.917Z,3.40
2022-09-10T11:56:53.043Z,3.22
2022-09-10T11:59:26.258Z,3.67
2022-09-10T12:01:56.201Z,3.67
2022-09-10T12:04:30.548Z,4.00
2022-09-10T12:07:03.378Z,3.95
2022-09-10T12:09:37.780Z,4.28
2022-09-10T12:12:26.723Z,3.63
2022-09-10T12:14:54.112Z,3.00
2022-09-10T12:17:27.404Z,2.45
2022-09-10T12:19:55.524Z,2.17
2022-09-10T12:22:30.880Z,2.63
2022-09-10T12:25:05.505Z,2.30
2022-09-10T12:27:51.942Z,2.83
2022-09-10T12:30:27.755Z,2.63
2022-09-10T12:32:55.802Z,2.75
2022-09-10T12:35:31.601Z,2.78
2022-09-10T12:38:17.390Z,2.92
2022-09-10T12:40:45.405Z,2.90
2022-09-10T12:43:44.480Z,2.55
2022-09-10T12:46:14.165Z,2.30
2022-09-10T12:49:04.104Z,2.40
2022-09-10T12:51:42.122Z,2.10
2022-09-10T12:54:27.442Z,2.40
2022-09-10T12:56:54.317Z,2.40
2022-09-10T12:59:27.024Z,2.42
2022-09-10T13:01:54.368Z,2.05
2022-09-10T13:04:34.849Z,1.95
2022-09-10T13:07:19.428Z,2.50
2022-09-10T13:09:47.193Z,2.60
2022-09-10T13:12:19.100Z,2.30
2022-09-10T13:14:47.889Z,2.22
2022-09-10T13:17:43.872Z,2.60
2022-09-10T13:20:30.436Z,2.55
2022-09-10T13:22:57.316Z,2.38
2022-09-10T13:25:32.735Z,2.60
2022-09-10T13:27:59.850Z,2.70
2022-09-10T13:30:26.912Z,2.40
2022-09-10T13:32:55.902Z,2.28
2022-09-10T13:35:41.341Z,2.10
2022-09-10T13:38:17.222Z,2.28
2022-09-10T13:41:02.948Z,2.00
2022-09-10T13:43:45.125Z,1.88
2022-09-10T13:46:23.388Z,2.70
2022-09-10T13:48:53.013Z,2.50
2022-09-10T13:51:39.970Z,2.85
2022-09-10T13:54:09.210Z,2.38
2022-09-10T13:56:36.328Z,2.22
2022-09-10T13:59:04.671Z,2.17
2022-09-10T14:01:51.276Z,2.00
2022-09-10T14:04:26.303Z,2.17
2022-09-10T14:06:58.316Z,1.90
2022-09-10T14:09:25.845Z,1.90
2022-09-10T14:11:53.593Z,2.10
2022-09-10T14:14:23.513Z,2.08
2022-09-10T14:16:55.571Z,2.25
2022-09-10T14:19:28.023Z,2.30
2022-09-10T14:21:55.703Z,2.35
2022-09-10T14:24:30.794Z,2.20
2022-09-10T14:27:07.057Z,2.30
2022-09-10T14:29:33.935Z,2.20
2022-09-10T14:32:20.090Z,2.30
2022-09-10T14:34:47.969Z,2.40
2022-09-10T14:37:32.579Z,2.25
2022-09-10T14:40:03.982Z,2.47
2022-09-10T14:42:35.488Z,2.08
2022-09-10T14:45:03.288Z,2.08
2022-09-10T14:47:35.260Z,2.00
2022-09-10T14:50:20.603Z,2.05
2022-09-10T14:52:48.188Z,1.90
2022-09-10T14:55:18.043Z,1.88
2022-09-10T14:57:45.546Z,1.52
2022-09-10T15:00:14.051Z,2.00
2022-09-10T15:02:41.895Z,1.80
2022-09-10T15:05:17.425Z,1.88
2022-09-10T15:07:45.389Z,1.88
2022-09-10T15:10:12.422Z,1.80
2022-09-10T15:12:40.486Z,2.00
2022-09-10T15:15:16.842Z,1.65
2022-09-10T15:17:44.536Z,1.83
2022-09-10T15:20:15.348Z,1.77
2022-09-10T15:22:42.587Z,1.77
2022-09-10T15:25:39.141Z,1.70
2022-09-10T15:28:07.535Z,1.40
2022-09-10T15:30:36.849Z,2.15
2022-09-10T15:33:04.873Z,1.90
2022-09-10T15:35:31.792Z,1.63
2022-09-10T15:38:01.522Z,1.23
2022-09-10T15:40:28.633Z,1.80
2022-09-10T15:42:55.532Z,1.73
2022-09-10T15:45:22.323Z,1.52
2022-09-10T15:47:49.186Z,1.77
2022-09-10T15:50:16.481Z,1.85
2022-09-10T15:52:45.024Z,2.15
2022-09-10T15:55:12.598Z,2.00
2022-09-10T15:57:40.453Z,2.00
2022-09-10T16:00:07.769Z,1.80
2022-09-10T16:02:34.866Z,1.83
2022-09-10T16:05:01.758Z,1.60
2022-09-10T16:07:29.548Z,2.00
2022-09-10T16:09:57.737Z,2.40
2022-09-10T16:12:26.148Z,1.80
2022-09-10T16:14:53.546Z,2.05
2022-09-10T16:17:20.440Z,1.80
2022-09-10T16:19:47.447Z,1.77
2022-09-10T16:22:18.685Z,1.77
2022-09-10T16:24:47.668Z,2.00
2022-09-10T16:27:17.390Z,1.88
2022-09-10T16:29:44.455Z,2.17
2022-09-10T16:32:11.285Z,1.80
2022-09-10T16:34:38.717Z,1.90
2022-09-10T16:37:05.795Z,1.55
2022-09-10T16:39:32.677Z,2.10
2022-09-10T16:41:59.944Z,2.40
2022-09-10T16:44:28.445Z,2.33
2022-09-10T16:46:57.759Z,2.03
2022-09-10T16:49:24.680Z,2.03
2022-09-10T16:51:51.519Z,2.58
2022-09-10T16:54:22.533Z,2.00
2022-09-10T16:59:17.841Z,1.98
2022-09-10T17:01:45.336Z,1.90
2022-09-10T17:04:21.362Z,2.10
2022-09-10T17:06:51.256Z,2.42
2022-09-10T17:09:18.155Z,3.38
2022-09-10T17:11:44.968Z,2.83
2022-09-10T17:14:12.543Z,8.82
2022-09-10T17:16:40.889Z,5.85
2022-09-10T17:19:12.211Z,3.83
2022-09-10T17:21:39.764Z,3.20
2022-09-10T17:24:08.202Z,4.40
2022-09-10T17:26:37.334Z,3.55
2022-09-10T17:29:06.258Z,2.92
2022-09-10T17:31:33.545Z,2.70
2022-09-10T17:34:01.238Z,2.45
2022-09-10T17:36:28.335Z,2.95
2022-09-10T17:38:56.281Z,2.75
2022-09-10T17:41:23.592Z,2.45
2022-09-10T17:43:50.973Z,2.03
2022-09-10T17:46:19.163Z,2.58
2022-09-10T17:48:46.396Z,2.15
2022-09-10T17:51:14.660Z,3.47
2022-09-10T17:53:41.830Z,3.63
2022-09-10T17:56:09.783Z,5.20
2022-09-10T17:58:36.646Z,3.10
2022-09-10T18:01:10.303Z,5.72
2022-09-10T18:03:37.635Z,6.90
2022-09-10T18:06:08.824Z,4.97
2022-09-10T18:11:06.806Z,1.88
2022-09-10T18:13:34.415Z,1.90
2022-09-10T18:16:05.262Z,1.85
2022-09-10T18:18:33.992Z,2.08
2022-09-10T18:21:10.476Z,2.15
2022-09-10T18:23:37.311Z,1.70
2022-09-10T18:26:11.353Z,2.30
2022-09-10T18:28:38.271Z,2.47
2022-09-10T18:31:05.187Z,2.92
2022-09-10T18:33:36.379Z,2.40
2022-09-10T18:38:31.974Z,2.25
2022-09-10T18:40:59.226Z,2.30
2022-09-10T18:43:26.931Z,2.05
2022-09-10T18:45:53.834Z,2.53
2022-09-10T18:48:20.674Z,2.38
2022-09-10T18:50:47.483Z,2.47
2022-09-10T18:53:14.810Z,2.60
2022-09-10T18:55:42.221Z,2.30
2022-09-10T18:58:09.123Z,2.78
2022-09-10T19:00:36.224Z,2.70
2022-09-10T19:03:03.080Z,3.25
2022-09-10T19:05:30.000Z,2.60
2022-09-10T19:07:56.814Z,3.00
2022-09-10T19:10:23.696Z,2.80
2022-09-10T19:12:51.901Z,2.80
2022-09-10T19:15:18.843Z,3.15
2022-09-10T19:17:45.753Z,3.20
2022-09-10T19:20:12.670Z,3.13
2022-09-10T19:22:39.759Z,3.15
2022-09-10T19:25:06.942Z,3.70
2022-09-10T19:27:35.220Z,3.63
2022-09-10T19:30:02.140Z,3.33
2022-09-10T19:32:29.044Z,3.50
2022-09-10T19:34:56.059Z,3.40
2022-09-10T19:37:22.948Z,3.35
2022-09-10T19:39:50.074Z,4.18
2022-09-10T19:42:17.290Z,4.32
2022-09-10T19:44:45.127Z,4.13
2022-09-10T19:47:14.367Z,5.50
2022-09-10T19:49:41.145Z,4.93
2022-09-10T19:52:07.973Z,4.95
2022-09-10T19:54:35.202Z,5.20
2022-09-10T19:57:01.993Z,5.25
2022-09-10T19:59:29.011Z,5.30
2022-09-10T20:01:55.964Z,4.80
2022-09-10T20:04:23.074Z,5.22
2022-09-10T20:06:52.898Z,4.78
2022-09-10T20:09:19.753Z,4.80
2022-09-10T20:11:46.626Z,5.47
2022-09-10T20:14:14.215Z,5.05
2022-09-10T20:16:42.935Z,5.30
2022-09-10T20:19:11.279Z,6.13
2022-09-10T20:21:39.310Z,6.15
2022-09-10T20:24:07.029Z,6.20
2022-09-10T20:26:35.117Z,7.57
2022-09-10T20:29:04.022Z,6.90
2022-09-10T20:31:31.900Z,8.40
2022-09-10T20:34:00.060Z,6.80
2022-09-10T20:36:30.029Z,6.30
2022-09-10T20:38:57.386Z,7.15
2022-09-10T20:41:25.061Z,7.53
2022-09-10T20:43:52.984Z,7.90
2022-09-10T20:46:23.355Z,7.60
2022-09-10T20:48:51.313Z,8.32
2022-09-10T20:51:19.135Z,7.47
2022-09-10T20:53:49.794Z,7.43
2022-09-10T20:56:18.403Z,6.85
2022-09-10T20:58:45.643Z,7.78
2022-09-10T21:01:13.736Z,8.50
2022-09-10T21:03:43.869Z,7.47
2022-09-10T21:06:11.581Z,8.20
2022-09-10T21:08:38.990Z,8.32
2022-09-10T21:11:07.167Z,7.88
2022-09-10T21:13:34.591Z,8.23
2022-09-10T21:16:07.514Z,7.90
2022-09-10T21:18:35.290Z,8.45
2022-09-10T21:21:08.384Z,7.45
2022-09-10T21:23:36.780Z,7.35
2022-09-10T21:26:05.319Z,8.25
2022-09-10T21:28:32.344Z,8.93
2022-09-10T21:31:05.803Z,8.45
2022-09-10T21:33:35.717Z,8.90
2022-09-10T21:36:10.651Z,9.30
2022-09-10T21:38:38.083Z,8.73
2022-09-10T21:41:06.605Z,9.57
2022-09-10T21:43:34.655Z,8.95
2022-09-10T21:46:02.504Z,9.30
2022-09-10T21:48:35.929Z,9.23
2022-09-10T21:51:04.640Z,9.13
2022-09-10T21:53:32.191Z,9.07
2022-09-10T21:55:59.620Z,9.02
2022-09-10T21:58:30.415Z,8.15
2022-09-10T22:00:58.553Z,9.45
2022-09-10T22:03:26.665Z,8.35
2022-09-10T22:05:53.496Z,7.97
2022-09-10T22:08:20.282Z,8.90
2022-09-10T22:10:47.280Z,8.32
2022-09-10T22:13:16.490Z,8.35
2022-09-10T22:15:47.127Z,7.65
2022-09-10T22:18:14.973Z,8.13
2022-09-10T22:20:41.952Z,7.85
2022-09-10T22:23:08.900Z,8.10
2022-09-10T22:25:35.983Z,7.95
2022-09-10T22:28:06.819Z,7.78
2022-09-10T22:30:36.614Z,7.53
2022-09-10T22:33:03.698Z,7.10
2022-09-10T22:35:31.169Z,6.82
2022-09-10T22:37:58.083Z,6.53
2022-09-10T22:40:28.250Z,6.57
2022-09-10T22:42:55.117Z,6.90
2022-09-10T22:45:22.201Z,5.78
2022-09-10T22:47:50.465Z,6.47
2022-09-10T22:50:19.319Z,6.68
2022-09-10T22:52:46.993Z,6.75
2022-09-10T22:55:16.404Z,6.88
2022-09-10T22:57:46.117Z,7.75
2022-09-10T23:00:13.875Z,8.10
2022-09-10T23:02:41.274Z,7.82
2022-09-10T23:05:08.305Z,8.48
2022-09-10T23:07:37.981Z,9.85
2022-09-10T23:10:05.193Z,9.48
2022-09-10T23:12:32.160Z,8.88
2022-09-10T23:14:59.128Z,9.02
2022-09-10T23:17:26.200Z,9.57
2022-09-10T23:19:53.304Z,9.60
2022-09-10T23:22:24.229Z,9.57
2022-09-10T23:24:51.211Z,10.75
2022-09-10T23:27:18.916Z,9.90
2022-09-10T23:29:46.260Z,9.80
2022-09-10T23:32:15.580Z,9.02
2022-09-10T23:34:42.615Z,8.23
2022-09-10T23:37:10.273Z,8.90
2022-09-10T23:39:37.363Z,8.10
2022-09-10T23:42:05.479Z,8.25
2022-09-10T23:44:32.765Z,7.53
2022-09-10T23:47:00.738Z,8.15
2022-09-10T23:49:30.130Z,7.05
2022-09-10T23:51:57.213Z,8.02
2022-09-10T23:54:24.780Z,7.93
2022-09-10T23:56:52.324Z,8.10
2022-09-10T23:59:19.943Z,7.15
